Time;durP1;ratioP1;P1;durP2;ratioP2;P2;SDS_P1;SDS_P2;PMS_P1;PMS_P2;Temp;Humidity;BMP_temperature;BMP_pressure;BME280_temperature;BME280_humidity;BME280_pressure;Samples;Min_cycle;Max_cycle;Signal;HPM_P1;HPM_P2
2022/10/17 00:00:59;;;;;;;12.75;6.42;;;;;;;2.27;100.00;102422.03;1691590;83;21533;-70
2022/10/17 00:03:27;;;;;;;10.82;6.10;;;;;;;2.31;100.00;102415.30;1691374;83;21156;-70
2022/10/17 00:05:55;;;;;;;10.68;5.90;;;;;;;2.33;100.00;102415.80;1691482;83;21545;-70
2022/10/17 00:08:22;;;;;;;10.55;6.17;;;;;;;2.30;100.00;102419.95;1691392;83;21057;-70
2022/10/17 00:11:01;;;;;;;11.38;6.15;;;;;;;2.29;100.00;102422.03;1691252;83;21108;-71
2022/10/17 00:13:29;;;;;;;9.33;5.95;;;;;;;2.29;100.00;102422.03;1691357;85;21053;-71
2022/10/17 00:15:58;;;;;;;11.60;6.67;;;;;;;2.24;100.00;102418.56;1691478;84;21049;-70
2022/10/17 00:18:26;;;;;;;10.58;6.83;;;;;;;2.23;100.00;102420.64;1691420;84;21093;-70
2022/10/17 00:20:54;;;;;;;13.50;7.75;;;;;;;2.18;100.00;102417.59;1691499;84;21057;-70
2022/10/17 00:23:23;;;;;;;13.58;7.08;;;;;;;2.09;100.00;102418.67;1691400;84;21086;-70
2022/10/17 00:26:03;;;;;;;14.07;8.23;;;;;;;2.09;100.00;102418.67;1691593;83;21663;-70
2022/10/17 00:28:32;;;;;;;11.48;6.92;;;;;;;2.10;100.00;102421.64;1691507;83;21099;-70
2022/10/17 00:31:02;;;;;;;12.30;7.62;;;;;;;2.05;100.00;102431.25;1691368;83;21057;-70
2022/10/17 00:33:31;;;;;;;16.82;8.15;;;;;;;2.01;100.00;102431.62;1691484;83;21631;-70
2022/10/17 00:36:19;;;;;;;15.00;8.60;;;;;;;1.96;100.00;102439.53;1691569;85;21529;-70
2022/10/17 00:38:51;;;;;;;17.73;8.13;;;;;;;1.91;100.00;102438.17;1691518;85;21029;-70
2022/10/17 00:41:22;;;;;;;16.12;8.13;;;;;;;1.82;100.00;102437.95;1691620;83;21092;-71
2022/10/17 00:43:59;;;;;;;15.53;8.30;;;;;;;1.79;100.00;102437.89;1691590;84;21068;-71
2022/10/17 00:46:30;;;;;;;14.18;8.48;;;;;;;1.80;100.00;102448.48;1691475;83;21045;-71
2022/10/17 00:49:02;;;;;;;15.65;7.92;;;;;;;1.80;100.00;102449.75;1691528;83;21502;-70
2022/10/17 00:51:43;;;;;;;15.35;8.65;;;;;;;1.82;100.00;102447.25;1691232;84;21136;-71
2022/10/17 00:54:13;;;;;;;15.08;8.53;;;;;;;1.77;100.00;102449.27;1691585;83;21077;-70
2022/10/17 00:56:41;;;;;;;17.23;9.40;;;;;;;1.74;100.00;102458.07;1668092;84;22184;-70
2022/10/17 00:59:10;;;;;;;16.10;8.80;;;;;;;1.76;100.00;102455.58;1691493;85;21061;-71
2022/10/17 01:01:42;;;;;;;19.32;9.03;;;;;;;1.75;100.00;102453.87;1691559;83;21065;-70
2022/10/17 01:04:09;;;;;;;18.00;9.90;;;;;;;1.75;100.00;102456.00;1691478;84;21049;-71
2022/10/17 01:06:38;;;;;;;18.82;9.98;;;;;;;1.78;100.00;102456.47;1691414;83;21053;-70
2022/10/17 01:09:05;;;;;;;16.82;9.20;;;;;;;1.77;100.00;102459.43;1691403;85;21121;-70
2022/10/17 01:11:44;;;;;;;15.55;9.35;;;;;;;1.73;100.00;102458.91;1691592;84;21053;-70
2022/10/17 01:14:24;;;;;;;17.27;9.55;;;;;;;1.72;100.00;102457.18;1691274;84;21065;-71
2022/10/17 01:17:03;;;;;;;18.12;9.68;;;;;;;1.71;100.00;102458.02;1669155;83;21061;-70
2022/10/17 01:19:56;;;;;;;14.20;9.00;;;;;;;1.66;100.00;102458.30;1716872;83;21077;-70
2022/10/17 01:22:53;;;;;;;17.90;9.40;;;;;;;1.64;100.00;102462.91;1708437;83;21101;-70
2022/10/17 01:25:43;;;;;;;16.73;9.38;;;;;;;1.59;100.00;102467.45;1723355;82;21042;-71
2022/10/17 01:28:47;;;;;;;17.00;9.25;;;;;;;1.60;100.00;102461.96;1711757;83;21037;-70
2022/10/17 01:31:36;;;;;;;15.88;8.80;;;;;;;1.60;100.00;102461.58;1715960;83;21046;-70
2022/10/17 01:34:27;;;;;;;14.45;8.40;;;;;;;1.60;100.00;102468.30;1712096;82;21065;-71
2022/10/17 01:37:16;;;;;;;18.02;9.25;;;;;;;1.56;100.00;102464.86;1720643;82;21059;-71
2022/10/17 01:39:51;;;;;;;15.08;8.95;;;;;;;1.57;100.00;102465.29;1713597;83;21128;-70
2022/10/17 01:42:33;;;;;;;16.97;9.20;;;;;;;1.57;100.00;102466.56;1711258;83;21120;-71
2022/10/17 01:45:18;;;;;;;14.43;9.30;;;;;;;1.56;100.00;102462.70;1711091;83;21093;-71
2022/10/17 01:47:48;;;;;;;17.95;9.33;;;;;;;1.58;100.00;102454.33;1715517;82;21049;-71
2022/10/17 01:50:25;;;;;;;15.72;9.33;;;;;;;1.58;100.00;102453.45;1720293;82;21053;-70
2022/10/17 01:53:01;;;;;;;18.15;9.48;;;;;;;1.58;100.00;102449.64;1710576;82;21100;-71
2022/10/17 01:55:34;;;;;;;15.68;8.98;;;;;;;1.59;100.00;102452.23;1715902;82;21068;-70
2022/10/17 01:58:28;;;;;;;19.42;9.60;;;;;;;1.55;100.00;102444.09;1725003;82;21048;-71
2022/10/17 02:01:01;;;;;;;17.67;9.23;;;;;;;1.52;100.00;102454.57;1715505;82;21084;-71
2022/10/17 02:03:33;;;;;;;20.50;9.28;;;;;;;1.49;100.00;102450.28;1722112;82;21084;-72
2022/10/17 02:06:00;;;;;;;17.87;8.83;;;;;;;1.51;100.00;102451.59;1680914;83;21021;-72
2022/10/17 02:08:45;;;;;;;19.45;9.95;;;;;;;1.44;100.00;102450.59;1685328;84;21137;-72
2022/10/17 02:11:25;;;;;;;16.40;9.05;;;;;;;1.40;100.00;102456.00;1706092;82;21039;-71
2022/10/17 02:14:20;;;;;;;18.07;9.38;;;;;;;1.37;100.00;102454.64;1711629;83;21104;-71
2022/10/17 02:17:16;;;;;;;15.80;8.80;;;;;;;1.39;100.00;102451.73;1723794;81;21052;-72
2022/10/17 02:20:05;;;;;;;16.20;8.88;;;;;;;1.33;100.00;102450.73;1667339;84;21090;-72
2022/10/17 02:22:41;;;;;;;15.63;8.75;;;;;;;1.32;100.00;102446.07;1704701;83;21623;-71
2022/10/17 02:25:19;;;;;;;15.32;8.70;;;;;;;1.32;100.00;102449.03;1709850;82;21560;-71
2022/10/17 02:27:57;;;;;;;14.13;8.58;;;;;;;1.35;100.00;102446.55;1709358;82;21049;-71
2022/10/17 02:30:38;;;;;;;15.43;8.50;;;;;;;1.30;100.00;102450.25;1713118;82;21576;-71
2022/10/17 02:33:22;;;;;;;15.55;8.58;;;;;;;1.30;100.00;102450.25;1713011;83;21061;-72
2022/10/17 02:35:53;;;;;;;15.48;8.43;;;;;;;1.30;100.00;102450.25;1716025;82;21513;-72
2022/10/17 02:38:22;;;;;;;16.32;8.58;;;;;;;1.30;100.00;102454.05;1725902;81;21075;-72
2022/10/17 02:40:52;;;;;;;15.60;8.75;;;;;;;1.23;100.00;102452.16;1684332;82;21037;-72
2022/10/17 02:43:23;;;;;;;17.25;9.00;;;;;;;1.18;100.00;102454.59;1668433;82;21106;-72
2022/10/17 02:45:52;;;;;;;22.42;10.32;;;;;;;1.22;100.00;102454.27;1691679;83;21022;-72
2022/10/17 02:48:43;;;;;;;17.37;9.73;;;;;;;1.23;100.00;102450.89;1701172;83;21041;-71
2022/10/17 02:51:39;;;;;;;21.15;10.58;;;;;;;1.22;100.00;102459.73;1683424;83;21529;-72
2022/10/17 02:54:23;;;;;;;17.62;10.28;;;;;;;1.19;100.00;102461.36;1671286;82;21058;-72
2022/10/17 02:56:58;;;;;;;19.10;10.53;;;;;;;1.15;100.00;102468.86;1706584;83;21049;-71
2022/10/17 02:59:29;;;;;;;22.58;10.65;;;;;;;1.14;100.00;102464.63;1706271;82;21930;-71
2022/10/17 03:01:56;;;;;;;17.85;10.25;;;;;;;1.09;100.00;102471.23;1708256;82;21043;-72
2022/10/17 03:04:24;;;;;;;17.87;10.38;;;;;;;1.09;100.00;102467.44;1669913;84;21108;-71
2022/10/17 03:06:51;;;;;;;17.75;10.60;;;;;;;1.10;100.00;102472.97;1703260;83;21088;-72
2022/10/17 03:09:18;;;;;;;20.35;10.82;;;;;;;1.10;100.00;102471.29;1707562;83;21022;-72
2022/10/17 03:11:46;;;;;;;19.67;10.90;;;;;;;1.06;100.00;102473.30;1717066;82;21619;-72
2022/10/17 03:14:14;;;;;;;23.07;10.78;;;;;;;1.02;100.00;102480.37;1696010;83;21120;-72
2022/10/17 03:16:42;;;;;;;19.05;10.90;;;;;;;1.01;100.00;102471.03;1715495;82;21092;-72
2022/10/17 03:19:10;;;;;;;22.07;11.65;;;;;;;1.01;100.00;102476.09;1694453;83;21112;-72
2022/10/17 03:21:38;;;;;;;21.77;11.33;;;;;;;0.98;100.00;102476.88;1697850;83;21029;-72
2022/10/17 03:24:07;;;;;;;23.05;11.80;;;;;;;0.98;100.00;102479.42;1701696;82;21120;-72
2022/10/17 03:26:35;;;;;;;21.07;12.60;;;;;;;0.94;100.00;102484.37;1695448;83;21140;-72
2022/10/17 03:29:03;;;;;;;21.17;11.85;;;;;;;0.88;100.00;102489.28;1690797;83;21089;-72
2022/10/17 03:31:30;;;;;;;22.77;11.25;;;;;;;0.82;100.00;102484.89;1716261;82;21522;-73
2022/10/17 03:33:58;;;;;;;22.27;11.25;;;;;;;0.79;100.00;102480.98;1699168;83;21085;-72
2022/10/17 03:36:25;;;;;;;20.52;11.55;;;;;;;0.77;100.00;102482.62;1708816;82;20998;-72
2022/10/17 03:38:53;;;;;;;25.70;14.40;;;;;;;0.77;100.00;102488.57;1712295;82;21042;-72
2022/10/17 03:41:21;;;;;;;25.75;13.90;;;;;;;0.78;100.00;102481.40;1712602;82;21037;-72
2022/10/17 03:43:48;;;;;;;26.20;14.63;;;;;;;0.78;100.00;102481.81;1678864;84;21072;-72
2022/10/17 03:46:15;;;;;;;26.25;13.32;;;;;;;0.78;100.00;102478.02;1701304;82;21080;-72
2022/10/17 03:48:43;;;;;;;22.50;12.95;;;;;;;0.82;100.00;102474.75;1701119;83;21096;-72
2022/10/17 03:51:11;;;;;;;23.65;12.58;;;;;;;0.79;100.00;102472.99;1701165;83;21129;-72
2022/10/17 03:53:40;;;;;;;23.73;12.45;;;;;;;0.82;100.00;102473.89;1700503;83;21064;-72
2022/10/17 03:56:13;;;;;;;23.00;11.55;;;;;;;0.85;100.00;102476.08;1701137;83;21061;-72
2022/10/17 03:58:40;;;;;;;20.97;12.25;;;;;;;0.87;100.00;102480.78;1701215;83;21100;-72
2022/10/17 04:01:10;;;;;;;25.25;12.03;;;;;;;0.84;100.00;102487.47;1701029;84;21061;-72
2022/10/17 04:03:39;;;;;;;21.12;11.57;;;;;;;0.82;100.00;102481.09;1701306;83;21489;-72
2022/10/17 04:06:07;;;;;;;23.15;11.85;;;;;;;0.81;100.00;102480.62;1701133;84;21076;-72
2022/10/17 04:08:35;;;;;;;24.77;13.80;;;;;;;0.82;100.00;102485.30;1701349;84;21532;-71
2022/10/17 04:11:07;;;;;;;25.02;12.80;;;;;;;0.81;100.00;102481.88;1700650;83;21674;-71
2022/10/17 04:13:35;;;;;;;20.80;11.55;;;;;;;0.79;100.00;102494.92;1696868;83;22586;-71
2022/10/17 04:16:09;;;;;;;23.42;13.10;;;;;;;0.75;100.00;102491.47;1705686;83;21088;-71
2022/10/17 04:18:40;;;;;;;27.87;15.00;;;;;;;0.73;100.00;102493.10;1703741;82;21572;-72
2022/10/17 04:21:08;;;;;;;30.30;15.15;;;;;;;0.71;100.00;102504.87;1694774;83;21609;-71
2022/10/17 04:23:38;;;;;;;27.50;15.18;;;;;;;0.72;100.00;102506.99;1686766;84;21505;-71
2022/10/17 04:26:07;;;;;;;27.32;15.18;;;;;;;0.73;100.00;102506.16;1669899;84;21104;-72
2022/10/17 04:28:35;;;;;;;31.25;15.28;;;;;;;0.76;100.00;102508.80;1701069;83;21080;-71
2022/10/17 04:31:09;;;;;;;29.32;15.20;;;;;;;0.75;100.00;102510.48;1701356;83;21569;-71
2022/10/17 04:33:37;;;;;;;25.45;15.28;;;;;;;0.75;100.00;102516.82;1668355;84;21557;-72
2022/10/17 04:36:10;;;;;;;25.92;15.80;;;;;;;0.80;100.00;102514.41;1701263;83;21052;-71
2022/10/17 04:38:38;;;;;;;29.00;14.93;;;;;;;0.84;100.00;102516.62;1701283;83;21127;-72
2022/10/17 04:41:10;;;;;;;28.75;14.70;;;;;;;0.86;100.00;102523.45;1701295;83;21404;-71
2022/10/17 04:43:38;;;;;;;27.93;14.98;;;;;;;0.91;100.00;102520.66;1701426;83;21525;-71
2022/10/17 04:46:12;;;;;;;30.17;15.32;;;;;;;0.96;100.00;102516.97;1701664;84;21112;-71
2022/10/17 04:48:41;;;;;;;30.15;15.03;;;;;;;1.03;100.00;102517.58;1701313;83;21115;-72
2022/10/17 04:51:12;;;;;;;30.20;16.23;;;;;;;1.15;100.00;102531.02;1701384;83;21554;-71
2022/10/17 04:53:42;;;;;;;27.50;15.35;;;;;;;1.25;100.00;102530.44;1699149;82;21557;-71
2022/10/17 04:56:14;;;;;;;24.77;14.58;;;;;;;1.33;100.00;102530.66;1701419;83;21036;-71
2022/10/17 04:58:42;;;;;;;28.12;15.28;;;;;;;1.34;100.00;102535.78;1701308;82;21120;-71
2022/10/17 05:01:14;;;;;;;27.93;15.00;;;;;;;1.38;100.00;102540.53;1701074;82;21497;-71
2022/10/17 05:03:42;;;;;;;32.05;15.58;;;;;;;1.40;100.00;102539.74;1725660;81;20967;-72
2022/10/17 05:06:22;;;;;;;37.53;20.23;;;;;;;1.46;100.00;102540.70;1760715;81;21078;-71
2022/10/17 05:08:51;;;;;;;34.45;17.77;;;;;;;1.53;100.00;102545.14;1760215;81;21058;-71
2022/10/17 05:11:26;;;;;;;41.40;21.27;;;;;;;1.63;100.00;102548.78;1760946;81;21000;-71
2022/10/17 05:13:57;;;;;;;41.02;21.40;;;;;;;1.66;100.00;102551.38;1761095;81;20991;-71
2022/10/17 05:16:27;;;;;;;39.92;20.72;;;;;;;1.74;100.00;102552.02;1760856;81;21074;-71
2022/10/17 05:18:58;;;;;;;32.03;16.95;;;;;;;1.82;100.00;102561.52;1761132;81;21050;-72
2022/10/17 05:21:29;;;;;;;27.32;15.75;;;;;;;1.91;100.00;102563.89;1761317;81;21577;-71
2022/10/17 05:23:59;;;;;;;29.75;16.40;;;;;;;2.01;100.00;102564.98;1761189;81;21066;-71
2022/10/17 05:26:26;;;;;;;28.75;15.95;;;;;;;2.10;100.00;102563.06;1760777;81;21074;-71
2022/10/17 05:28:53;;;;;;;31.50;16.45;;;;;;;2.22;100.00;102562.08;1760729;81;21070;-71
2022/10/17 05:31:22;;;;;;;31.10;16.50;;;;;;;2.29;100.00;102555.45;1761195;81;21511;-71
2022/10/17 05:33:49;;;;;;;28.83;16.62;;;;;;;2.38;100.00;102546.78;1760966;81;21047;-71
2022/10/17 05:36:16;;;;;;;30.10;16.93;;;;;;;2.50;100.00;102550.02;1761088;81;21089;-72
2022/10/17 05:38:45;;;;;;;30.40;16.57;;;;;;;2.60;100.00;102552.78;1760999;81;21543;-72
2022/10/17 05:41:13;;;;;;;30.62;16.87;;;;;;;2.71;100.00;102555.97;1761044;81;20995;-71
2022/10/17 05:43:40;;;;;;;29.30;17.17;;;;;;;2.84;100.00;102557.95;1760814;81;21637;-71
2022/10/17 05:46:08;;;;;;;29.80;17.42;;;;;;;2.96;100.00;102553.13;1721813;81;21522;-72
2022/10/17 05:48:36;;;;;;;32.15;17.30;;;;;;;3.11;100.00;102557.65;1712802;83;21036;-71
2022/10/17 05:51:08;;;;;;;31.52;16.97;;;;;;;3.37;100.00;102548.39;1702615;81;21055;-72
2022/10/17 05:53:38;;;;;;;30.23;16.87;;;;;;;3.37;100.00;102548.39;1723696;82;21511;-71
2022/10/17 05:56:10;;;;;;;28.32;17.50;;;;;;;3.57;100.00;102552.16;1730343;82;21047;-72
2022/10/17 05:58:42;;;;;;;35.75;18.12;;;;;;;3.73;100.00;102550.73;1730278;83;21079;-71
2022/10/17 06:01:11;;;;;;;;;;;;;;;3.87;100.00;102550.94;1732876;82;21007;-72
2022/10/17 06:03:38;;;;;;;49.95;24.75;;;;;;;4.03;100.00;102549.93;1730413;83;20101;-71
2022/10/17 06:06:11;;;;;;;46.70;24.75;;;;;;;4.15;100.00;102545.88;1729962;82;21114;-72
2022/10/17 06:08:40;;;;;;;47.83;23.40;;;;;;;4.31;100.00;102540.59;1730438;82;22625;-71
2022/10/17 06:11:11;;;;;;;44.50;20.85;;;;;;;4.45;100.00;102531.87;1730096;82;21055;-72
2022/10/17 06:13:40;;;;;;;38.05;19.32;;;;;;;4.63;100.00;102524.89;1716956;82;21696;-71
2022/10/17 06:16:09;;;;;;;34.73;18.65;;;;;;;4.81;100.00;102519.16;1727903;83;21064;-71
2022/10/17 06:18:38;;;;;;;23.32;12.78;;;;;;;5.04;100.00;102521.97;1730474;82;21559;-71
2022/10/17 06:21:10;;;;;;;24.20;11.03;;;;;;;5.31;100.00;102526.54;1730111;82;21051;-71
2022/10/17 06:23:39;;;;;;;16.00;9.20;;;;;;;5.53;100.00;102535.23;1730198;82;21535;-71
2022/10/17 06:26:12;;;;;;;14.05;8.65;;;;;;;5.80;100.00;102546.15;1729283;83;21063;-72
2022/10/17 06:28:40;;;;;;;14.47;8.30;;;;;;;6.04;100.00;102565.10;1730280;83;21348;-72
2022/10/17 06:31:10;;;;;;;18.67;9.13;;;;;;;6.17;100.00;102583.97;1730443;82;21200;-72
2022/10/17 06:33:37;;;;;;;17.32;9.90;;;;;;;6.39;100.00;102597.78;1730288;83;21118;-72
2022/10/17 06:36:07;;;;;;;15.40;8.80;;;;;;;6.57;100.00;102614.53;1730235;82;21098;-71
2022/10/17 06:38:36;;;;;;;21.65;9.60;;;;;;;6.80;100.00;102618.92;1730189;82;21012;-71
2022/10/17 06:41:13;;;;;;;13.90;8.10;;;;;;;6.92;100.00;102629.23;1725650;82;21023;-71
2022/10/17 06:43:48;;;;;;;19.87;9.55;;;;;;;7.17;100.00;102647.27;1730126;83;21090;-72
2022/10/17 06:46:31;;;;;;;14.70;8.33;;;;;;;7.31;100.00;102654.58;1730425;83;21090;-72
2022/10/17 06:49:03;;;;;;;15.18;8.63;;;;;;;7.55;100.00;102661.94;1730305;82;21551;-72
2022/10/17 06:51:48;;;;;;;15.00;7.70;;;;;;;7.73;100.00;102670.96;1730520;83;21547;-71
2022/10/17 06:54:16;;;;;;;16.50;8.55;;;;;;;7.86;100.00;102680.81;1730468;82;21551;-72
2022/10/17 06:56:51;;;;;;;16.20;8.43;;;;;;;7.96;100.00;102686.81;1729650;82;22252;-72
2022/10/17 06:59:32;;;;;;;14.65;8.15;;;;;;;8.11;100.00;102684.29;1729860;82;21079;-72
2022/10/17 07:02:01;;;;;;;17.45;9.38;;;;;;;8.26;100.00;102683.44;1730314;83;21531;-71
2022/10/17 07:04:29;;;;;;;16.97;8.70;;;;;;;8.35;100.00;102693.72;1730508;82;21097;-72
2022/10/17 07:06:57;;;;;;;15.95;8.13;;;;;;;8.46;100.00;102693.74;1730776;83;21504;-72
2022/10/17 07:09:26;;;;;;;20.20;8.65;;;;;;;8.69;100.00;102689.02;1730363;83;21007;-71
2022/10/17 07:11:55;;;;;;;13.25;7.80;;;;;;;8.82;100.00;102699.71;1730330;82;21047;-72
2022/10/17 07:14:22;;;;;;;15.15;8.53;;;;;;;8.90;100.00;102708.25;1730416;83;21154;-72
2022/10/17 07:16:50;;;;;;;15.23;7.75;;;;;;;9.02;100.00;102706.95;1730541;83;21558;-72
2022/10/17 07:19:21;;;;;;;15.83;8.03;;;;;;;9.18;100.00;102721.02;1730576;83;21078;-72
2022/10/17 07:21:48;;;;;;;12.35;7.60;;;;;;;9.30;100.00;102724.84;1730660;83;20995;-72
2022/10/17 07:24:15;;;;;;;17.85;8.10;;;;;;;9.40;100.00;102723.94;1730699;82;21574;-72
2022/10/17 07:26:44;;;;;;;13.45;7.35;;;;;;;9.53;100.00;102723.89;1730042;83;21027;-72
2022/10/17 07:29:12;;;;;;;15.95;7.30;;;;;;;9.64;100.00;102726.00;1730482;82;21512;-73
2022/10/17 07:31:44;;;;;;;11.00;7.58;;;;;;;9.75;100.00;102729.39;1728973;83;21046;-72
2022/10/17 07:34:11;;;;;;;15.38;7.95;;;;;;;9.86;100.00;102733.19;1730315;83;21074;-71
2022/10/17 07:36:39;;;;;;;14.43;7.60;;;;;;;9.95;100.00;102733.55;1730237;82;21031;-72
2022/10/17 07:39:08;;;;;;;16.95;8.80;;;;;;;10.03;100.00;102727.93;1730216;83;21027;-72
2022/10/17 07:41:36;;;;;;;14.58;7.90;;;;;;;10.13;100.00;102724.43;1730353;82;21560;-72
2022/10/17 07:44:04;;;;;;;15.03;8.38;;;;;;;10.21;100.00;102730.38;1730103;82;21007;-73
2022/10/17 07:46:33;;;;;;;18.02;8.45;;;;;;;10.30;100.00;102732.50;1730562;82;21023;-72
2022/10/17 07:49:00;;;;;;;15.72;7.95;;;;;;;10.39;100.00;102732.44;1730369;83;21094;-73
2022/10/17 07:51:28;;;;;;;15.60;7.95;;;;;;;10.53;100.00;102724.17;1730512;83;21109;-73
2022/10/17 07:53:55;;;;;;;17.23;8.55;;;;;;;10.60;100.00;102727.55;1730190;82;21075;-72
2022/10/17 07:56:23;;;;;;;14.98;8.03;;;;;;;10.69;100.00;102726.62;1730282;83;21031;-72
2022/10/17 07:58:52;;;;;;;18.98;7.75;;;;;;;10.74;100.00;102722.27;1730185;82;21051;-73
2022/10/17 08:01:19;;;;;;;15.40;7.78;;;;;;;10.83;100.00;102718.34;1725338;82;21530;-72
2022/10/17 08:03:47;;;;;;;15.00;7.65;;;;;;;10.98;100.00;102718.61;1718799;83;21026;-72
2022/10/17 08:06:14;;;;;;;13.55;7.95;;;;;;;11.06;100.00;102715.95;1717837;82;21025;-72
2022/10/17 08:08:42;;;;;;;16.87;8.43;;;;;;;11.09;100.00;102720.66;1716761;83;20983;-72
2022/10/17 08:11:12;;;;;;;19.62;8.33;;;;;;;11.11;100.00;102720.61;1716868;83;21567;-72
2022/10/17 08:13:41;;;;;;;16.00;7.95;;;;;;;11.14;100.00;102727.87;1720770;83;20947;-73
2022/10/17 08:16:11;;;;;;;17.17;8.60;;;;;;;11.12;100.00;102725.75;1712360;82;21091;-72
2022/10/17 08:18:42;;;;;;;21.27;8.28;;;;;;;11.19;100.00;102724.83;1730071;81;21033;-73
2022/10/17 08:21:12;;;;;;;20.12;8.80;;;;;;;11.21;100.00;102724.80;1711233;83;21122;-73
2022/10/17 08:23:39;;;;;;;19.77;8.78;;;;;;;11.27;100.00;102718.72;1713368;83;21075;-72
2022/10/17 08:26:09;;;;;;;28.47;10.82;;;;;;;11.36;100.00;102713.02;1726018;82;21542;-73
2022/10/17 08:28:39;;;;;;;47.48;19.42;;;;;;;11.50;100.00;102709.44;1710950;82;21074;-72
2022/10/17 08:31:10;;;;;;;42.08;12.43;;;;;;;11.49;100.00;102709.00;1737662;81;21037;-72
2022/10/17 08:33:38;;;;;;;57.65;12.60;;;;;;;11.62;100.00;102710.56;1738410;81;21072;-73
2022/10/17 08:36:06;;;;;;;55.08;12.95;;;;;;;11.72;100.00;102713.85;1738918;81;21782;-72
2022/10/17 08:38:36;;;;;;;52.78;12.63;;;;;;;11.77;100.00;102714.66;1713195;83;21065;-73
2022/10/17 08:41:12;;;;;;;52.43;10.88;;;;;;;11.85;100.00;102712.82;1712854;83;21993;-72
2022/10/17 08:44:10;;;;;;;49.27;11.05;;;;;;;11.91;100.00;102710.63;1718114;82;21088;-73
2022/10/17 08:46:41;;;;;;;43.35;10.95;;;;;;;11.93;100.00;102701.14;1716326;83;21027;-73
2022/10/17 08:49:26;;;;;;;46.18;10.43;;;;;;;12.00;100.00;102701.45;1725623;83;21025;-72
2022/10/17 08:52:00;;;;;;;39.75;8.95;;;;;;;12.05;100.00;102714.30;1715507;83;21078;-73
2022/10/17 08:54:39;;;;;;;17.87;6.47;;;;;;;12.20;100.00;102704.57;1718232;83;21002;-72
2022/10/17 08:57:14;;;;;;;16.40;6.05;;;;;;;12.21;100.00;102702.42;1722329;83;21029;-73
2022/10/17 08:59:43;;;;;;;20.35;6.12;;;;;;;12.23;100.00;102698.53;1714076;82;21037;-73
2022/10/17 09:02:27;;;;;;;19.73;6.20;;;;;;;12.31;100.00;102695.38;1717077;82;21044;-72
2022/10/17 09:05:08;;;;;;;13.85;4.72;;;;;;;12.46;100.00;102696.00;1706407;82;21014;-72
2022/10/17 09:08:23;;;;;;;10.48;4.72;;;;;;;12.62;100.00;102687.95;1715105;83;20995;-72
2022/10/17 09:11:29;;;;;;;8.00;4.53;;;;;;;12.66;100.00;102685.33;1717430;83;21039;-72
2022/10/17 09:14:12;;;;;;;26.80;4.58;;;;;;;12.78;100.00;102683.81;1713876;83;21027;-73
2022/10/17 09:17:04;;;;;;;10.85;3.80;;;;;;;12.87;100.00;102675.87;1734874;81;21526;-72
2022/10/17 09:19:36;;;;;;;8.78;3.72;;;;;;;12.92;100.00;102672.77;1719754;82;21048;-72
2022/10/17 09:22:16;;;;;;;7.87;4.10;;;;;;;12.92;100.00;102677.94;1705879;82;21030;-72
2022/10/17 09:24:54;;;;;;;7.97;4.28;;;;;;;12.93;100.00;102677.49;1709027;83;21045;-72
2022/10/17 09:27:41;;;;;;;6.85;4.20;;;;;;;13.01;100.00;102684.20;1697537;83;20998;-72
2022/10/17 09:30:34;;;;;;;7.47;4.20;;;;;;;13.06;100.00;102684.14;1665117;83;21046;-73
2022/10/17 09:33:12;;;;;;;8.88;4.22;;;;;;;13.01;100.00;102683.36;1692060;83;21487;-73
2022/10/17 09:35:40;;;;;;;7.67;4.47;;;;;;;13.10;100.00;102687.08;1711346;82;21119;-73
2022/10/17 09:38:20;;;;;;;5.90;4.20;;;;;;;13.22;100.00;102693.30;1707834;82;21116;-73
2022/10/17 09:40:58;;;;;;;7.33;4.67;;;;;;;13.32;100.00;102685.36;1701404;83;21006;-73
2022/10/17 09:43:25;;;;;;;9.13;4.42;;;;;;;13.38;100.00;102680.06;1724302;81;20996;-72
2022/10/17 09:46:31;;;;;;;10.53;3.77;;;;;;;13.49;100.00;102681.14;1700339;83;20997;-71
2022/10/17 09:49:03;;;;;;;7.60;3.30;;;;;;;13.46;100.00;102677.31;1705584;83;20977;-72
2022/10/17 09:51:31;;;;;;;6.40;3.50;;;;;;;13.59;100.00;102677.47;1708716;83;21074;-72
2022/10/17 09:54:10;;;;;;;5.67;3.33;;;;;;;13.58;100.00;102672.75;1714835;83;21051;-72
2022/10/17 09:57:04;;;;;;;7.67;3.40;;;;;;;13.76;100.00;102669.31;1708067;83;21013;-72
2022/10/17 09:59:39;;;;;;;5.63;3.40;;;;;;;13.78;100.00;102668.39;1710086;83;21114;-72
2022/10/17 10:02:16;;;;;;;5.65;3.17;;;;;;;13.72;100.00;102667.69;1707631;83;20989;-71
2022/10/17 10:04:54;;;;;;;7.70;3.60;;;;;;;13.77;100.00;102660.23;1709646;83;21584;-71
2022/10/17 10:07:21;;;;;;;7.75;3.60;;;;;;;13.80;100.00;102654.13;1709657;82;21038;-72
2022/10/17 10:09:51;;;;;;;4.65;3.25;;;;;;;13.99;100.00;102651.94;1713201;83;21045;-72
2022/10/17 10:12:24;;;;;;;10.72;4.00;;;;;;;13.90;100.00;102653.47;1703019;82;21495;-71
2022/10/17 10:14:51;;;;;;;6.62;3.58;;;;;;;13.83;100.00;102654.91;1700548;83;21022;-72
2022/10/17 10:17:42;;;;;;;10.25;3.55;;;;;;;13.83;100.00;102651.02;1708628;83;21013;-72
2022/10/17 10:20:36;;;;;;;5.40;3.40;;;;;;;13.87;100.00;102645.34;1709153;82;21075;-71
2022/10/17 10:23:16;;;;;;;3.75;3.00;;;;;;;13.92;100.00;102640.05;1713154;82;21519;-72
2022/10/17 10:25:56;;;;;;;5.70;3.52;;;;;;;14.04;100.00;102641.04;1702861;83;21547;-72
2022/10/17 10:28:27;;;;;;;5.33;3.12;;;;;;;14.12;100.00;102652.06;1724309;81;21033;-72
2022/10/17 10:30:59;;;;;;;4.78;3.05;;;;;;;14.06;100.00;102653.50;1699841;82;21146;-72
2022/10/17 10:33:29;;;;;;;9.00;3.50;;;;;;;14.17;100.00;102651.52;1709876;82;21138;-71
2022/10/17 10:36:02;;;;;;;6.60;3.33;;;;;;;14.45;100.00;102646.91;1707949;82;21069;-72
2022/10/17 10:38:33;;;;;;;7.25;3.37;;;;;;;14.52;100.00;102651.05;1719424;81;21080;-72
2022/10/17 10:41:09;;;;;;;3.52;3.10;;;;;;;14.71;100.00;102655.77;1735755;81;21113;-72
2022/10/17 10:43:45;;;;;;;5.60;3.05;;;;;;;14.67;100.00;102659.34;1720854;83;21445;-71
2022/10/17 10:46:26;;;;;;;5.85;3.37;;;;;;;14.49;100.00;102654.16;1719327;83;21023;-72
2022/10/17 10:48:59;;;;;;;5.78;3.45;;;;;;;14.43;100.00;102653.41;1714303;83;21077;-71
2022/10/17 10:51:42;;;;;;;6.58;3.33;;;;;;;14.52;100.00;102653.64;1713122;83;20998;-72
2022/10/17 10:54:25;;;;;;;6.75;2.65;;;;;;;14.55;95.27;102655.30;1708869;83;21014;-72
2022/10/17 10:56:57;;;;;;;4.92;2.60;;;;;;;14.49;97.03;102654.16;1703266;83;21575;-72
2022/10/17 11:00:03;;;;;;;4.92;2.90;;;;;;;14.48;100.00;102655.06;1703845;83;21067;-72
2022/10/17 11:02:48;;;;;;;7.03;3.30;;;;;;;14.51;100.00;102654.97;1710028;83;21055;-72
2022/10/17 11:05:26;;;;;;;4.62;2.70;;;;;;;14.53;100.00;102654.48;1710737;83;21026;-72
2022/10/17 11:08:01;;;;;;;5.03;2.95;;;;;;;14.52;100.00;102655.39;1706929;83;21531;-71
2022/10/17 11:10:57;;;;;;;4.42;3.12;;;;;;;14.47;100.00;102656.78;1715507;83;21045;-72
2022/10/17 11:13:32;;;;;;;5.72;3.02;;;;;;;14.45;98.47;102654.67;1702948;83;21059;-72
2022/10/17 11:16:10;;;;;;;4.87;3.15;;;;;;;14.48;97.60;102653.77;1711000;83;21042;-72
2022/10/17 11:18:54;;;;;;;6.70;3.30;;;;;;;14.54;95.82;102654.45;1711910;83;21025;-72
2022/10/17 11:21:33;;;;;;;3.70;2.72;;;;;;;14.59;96.53;102640.94;1707372;83;20990;-72
2022/10/17 11:24:29;;;;;;;5.55;2.85;;;;;;;14.66;100.00;102641.65;1707983;83;21057;-72
2022/10/17 11:27:07;;;;;;;4.37;2.98;;;;;;;14.77;100.00;102634.86;1663531;85;21519;-72
2022/10/17 11:29:38;;;;;;;5.67;2.95;;;;;;;14.77;100.00;102629.67;1713131;82;21052;-72
2022/10/17 11:32:16;;;;;;;4.08;2.80;;;;;;;14.86;100.00;102633.30;1712581;83;21086;-72
2022/10/17 11:34:48;;;;;;;7.25;3.05;;;;;;;15.03;99.42;102627.64;1707884;83;21001;-71
2022/10/17 11:37:29;;;;;;;5.47;2.62;;;;;;;14.97;99.65;102623.48;1707941;83;21085;-72
2022/10/17 11:40:01;;;;;;;4.62;2.30;;;;;;;14.88;98.11;102628.95;1706766;83;21018;-72
2022/10/17 11:42:44;;;;;;;6.75;3.00;;;;;;;14.78;95.17;102624.45;1707047;83;21051;-71
2022/10/17 11:45:18;;;;;;;3.70;2.60;;;;;;;14.83;90.35;102624.32;1704836;83;21580;-72